Time;durP1;ratioP1;P1;durP2;ratioP2;P2;SDS_P1;SDS_P2;PMS_P1;PMS_P2;Temp;Humidity;BMP_temperature;BMP_pressure;BME280_temperature;BME280_humidity;BME280_pressure;Samples;Min_cycle;Max_cycle;Signal;HPM_P1;HPM_P2
2022/10/09 00:01:36;;;;;;;;;;;12.20;99.90;;;10.30;95.40;100582.22;10504603;28;20055;-86
2022/10/09 00:06:39;;;;;;;;;;;12.20;99.90;;;10.31;95.35;100583.06;10518976;28;20015;-86
2022/10/09 00:11:42;;;;;;;;;;;12.20;99.90;;;10.25;95.67;100591.66;10506381;28;19929;-86
2022/10/09 00:16:45;;;;;;;;;;;12.10;99.90;;;10.20;95.85;100589.44;10504595;28;20350;-86
2022/10/09 00:21:48;;;;;;;;;;;12.10;99.90;;;10.15;95.86;100589.09;10505911;28;20011;-86
2022/10/09 00:26:50;;;;;;;;;;;12.00;99.90;;;10.12;96.19;100584.06;10519825;28;19959;-86
2022/10/09 00:31:53;;;;;;;;;;;12.00;99.90;;;10.08;96.41;100572.09;10543385;28;19928;-86
2022/10/09 00:36:56;;;;;;;;;;;11.90;99.90;;;10.10;96.44;100567.47;10527666;28;20377;-86
2022/10/09 00:41:59;;;;;;;;;;;12.00;99.90;;;10.08;96.84;100562.31;10528181;28;19982;-86
2022/10/09 00:47:02;;;;;;;;;;;12.00;99.90;;;10.07;96.92;100563.28;10510157;28;19974;-85
2022/10/09 00:52:06;;;;;;;;;;;12.00;99.90;;;10.07;97.11;100554.47;10532164;28;20399;-86
2022/10/09 00:57:09;;;;;;;;;;;12.00;99.90;;;10.05;97.00;100553.81;10532971;28;19928;-86
2022/10/09 01:02:12;;;;;;;;;;;11.90;99.90;;;10.02;97.19;100543.53;10517255;28;19929;-86
2022/10/09 01:07:41;;;;;;;;;;;11.90;99.90;;;9.98;97.54;100543.00;10504152;28;20410;-86
2022/10/09 01:13:03;;;;;;;;;;;11.90;99.90;;;9.91;97.53;100542.78;10515081;28;20488;-86
2022/10/09 01:18:21;;;;;;;;;;;11.80;99.90;;;9.91;97.86;100542.78;10515295;28;19982;-86
2022/10/09 01:23:33;;;;;;;;;;;11.80;99.90;;;9.92;98.36;100541.78;10545065;28;20023;-86
2022/10/09 01:28:37;;;;;;;;;;;11.80;99.90;;;9.99;99.05;100530.53;10499130;28;19928;-86
2022/10/09 01:33:40;;;;;;;;;;;11.80;99.90;;;10.04;99.16;100537.06;10517953;28;20011;-86
2022/10/09 01:38:44;;;;;;;;;;;11.90;99.90;;;10.08;99.32;100524.31;10507546;28;19928;-86
2022/10/09 01:43:47;;;;;;;;;;;11.90;99.90;;;10.16;100.00;100529.66;10523732;28;19928;-86
2022/10/09 01:49:12;;;;;;;;;;;12.00;99.90;;;10.46;100.00;100520.38;10500004;28;19929;-86
2022/10/09 01:54:20;;;;;;;;;;;12.30;99.90;;;10.91;100.00;100524.53;10490593;28;19935;-85
2022/10/09 01:59:25;;;;;;;;;;;12.60;99.90;;;11.03;100.00;100525.06;10528151;28;20031;-86
2022/10/09 02:04:29;;;;;;;;;;;12.90;99.90;;;11.01;100.00;100535.03;10505823;28;19928;-86
2022/10/09 02:09:33;;;;;;;;;;;12.90;99.90;;;10.92;100.00;100537.69;10495252;28;19968;-86
2022/10/09 02:14:36;;;;;;;;;;;12.90;99.90;;;10.84;100.00;100545.59;10506540;28;19928;-86
2022/10/09 02:20:03;;;;;;;;;;;12.80;99.90;;;10.83;100.00;100549.25;10500326;28;19929;-86
2022/10/09 02:25:07;;;;;;;;;;;12.70;99.90;;;10.96;100.00;100549.63;10516268;28;20454;-86
2022/10/09 02:30:10;;;;;;;;;;;12.80;99.90;;;11.07;100.00;100553.00;10505230;28;19928;-86
2022/10/09 02:35:13;;;;;;;;;;;12.90;99.90;;;11.13;100.00;100555.84;10500214;28;20023;-86
2022/10/09 02:40:15;;;;;;;;;;;13.00;99.90;;;11.18;100.00;100561.50;10517183;28;20029;-86
2022/10/09 02:45:18;;;;;;;;;;;13.10;99.90;;;11.20;100.00;100561.34;10523864;28;19974;-86
2022/10/09 02:50:35;;;;;;;;;;;13.10;99.90;;;11.22;100.00;100559.38;10530782;28;20388;-86
2022/10/09 02:55:52;;;;;;;;;;;13.10;99.90;;;11.19;100.00;100576.47;10530000;28;19928;-86
2022/10/09 03:00:55;;;;;;;;;;;13.10;99.90;;;11.19;100.00;100578.28;10524155;28;20029;-86
2022/10/09 03:06:08;;;;;;;;;;;13.10;99.90;;;11.31;100.00;100584.13;10524076;28;20011;-86
2022/10/09 03:11:12;;;;;;;;;;;13.20;99.90;;;11.53;100.00;100581.69;10521368;28;20668;-86
2022/10/09 03:16:21;;;;;;;;;;;13.40;99.90;;;11.71;100.00;100578.03;10515094;28;20037;-86
2022/10/09 03:21:25;;;;;;;;;;;13.50;99.90;;;12.00;100.00;100586.41;10500899;28;19928;-86
2022/10/09 03:26:29;;;;;;;;;;;13.80;99.90;;;12.44;100.00;100588.66;10534556;28;19928;-86
2022/10/09 03:31:31;;;;;;;;;;;14.20;99.90;;;12.76;100.00;100597.53;10537117;28;19928;-86
2022/10/09 03:36:53;;;;;;;;;;;14.50;99.90;;;13.06;100.00;100587.91;10535293;28;19936;-86
2022/10/09 03:41:56;;;;;;;;;;;14.80;99.90;;;13.28;100.00;100591.66;10521943;28;20011;-86
2022/10/09 03:46:59;;;;;;;;;;;15.00;99.90;;;13.32;100.00;100606.34;10533740;28;19935;-86
2022/10/09 03:52:02;;;;;;;;;;;15.10;99.90;;;13.29;100.00;100612.84;10505719;28;19928;-86
2022/10/09 03:57:05;;;;;;;;;;;15.10;99.90;;;13.21;100.00;100604.06;10501680;28;19974;-87
2022/10/09 04:02:08;;;;;;;;;;;15.00;99.90;;;13.20;100.00;100597.03;10513772;28;19929;-86
2022/10/09 04:07:11;;;;;;;;;;;15.00;99.90;;;13.22;100.00;100595.03;10542947;28;19928;-86
2022/10/09 04:12:14;;;;;;;;;;;15.00;99.90;;;13.29;100.00;100586.16;10520583;28;19928;-85
2022/10/09 04:17:17;;;;;;;;;;;15.10;99.90;;;13.38;99.89;100602.97;10523343;28;19958;-86
2022/10/09 04:22:21;;;;;;;;;;;15.10;99.90;;;13.44;99.46;100604.94;10542685;28;19963;-86
2022/10/09 04:27:24;;;;;;;;;;;15.30;99.90;;;13.52;99.22;100594.19;10516066;28;20357;-85
2022/10/09 04:32:27;;;;;;;;;;;15.30;99.90;;;13.71;98.59;100590.22;10526814;28;19955;-86
2022/10/09 04:37:30;;;;;;;;;;;15.40;99.90;;;13.71;97.37;100592.06;10528679;28;19929;-86
2022/10/09 04:42:33;;;;;;;;;;;15.50;99.90;;;13.64;96.82;100622.13;10539943;28;20015;-86
2022/10/09 04:47:36;;;;;;;;;;;15.50;99.90;;;13.52;96.22;100626.22;10527039;28;19928;-87
2022/10/09 04:52:39;;;;;;;;;;;15.40;99.90;;;13.54;96.59;100655.41;10517272;28;19928;-87
2022/10/09 04:57:43;;;;;;;;;;;15.30;99.90;;;13.56;96.23;100648.06;10526120;28;19986;-87
2022/10/09 05:02:46;;;;;;;;;;;15.30;99.90;;;13.56;95.52;100654.25;10525826;28;19974;-87
2022/10/09 05:07:50;;;;;;;;;;;15.30;99.90;;;13.53;95.55;100649.25;10517242;28;19928;-87
2022/10/09 05:12:53;;;;;;;;;;;15.30;99.90;;;13.52;95.20;100655.59;10526776;28;19932;-88
2022/10/09 05:17:55;;;;;;;;;;;15.30;99.90;;;13.44;94.98;100669.00;10508225;28;20400;-88
2022/10/09 05:22:58;;;;;;;;;;;15.30;99.90;;;13.41;95.01;100661.31;10520555;28;19932;-88
2022/10/09 05:28:03;;;;;;;;;;;15.20;99.90;;;13.45;95.08;100669.84;10537759;28;19959;-87
2022/10/09 05:33:06;;;;;;;;;;;15.20;99.90;;;13.47;95.09;100675.81;10499844;28;19928;-86
2022/10/09 05:38:09;;;;;;;;;;;15.30;99.90;;;13.52;95.15;100681.47;10526079;28;19928;-86
2022/10/09 05:43:11;;;;;;;;;;;15.30;99.90;;;13.55;94.87;100689.94;10520566;28;19935;-86
2022/10/09 05:48:14;;;;;;;;;;;15.40;99.90;;;13.56;94.97;100688.97;10523070;28;19935;-86
2022/10/09 05:53:18;;;;;;;;;;;15.40;99.90;;;13.59;94.71;100693.09;10511042;28;19929;-88
2022/10/09 05:58:21;;;;;;;;;;;15.40;99.90;;;13.58;94.58;100700.28;10521510;28;19929;-87
2022/10/09 06:03:24;;;;;;;;;;;15.40;99.90;;;13.60;94.68;100703.59;10512583;28;19973;-88
2022/10/09 06:08:27;;;;;;;;;;;15.50;99.90;;;13.58;94.70;100697.63;10521128;28;20027;-87
2022/10/09 06:13:30;;;;;;;;;;;15.40;99.90;;;13.60;94.84;100708.94;10517292;28;19935;-87
2022/10/09 06:18:33;;;;;;;;;;;15.40;99.90;;;13.69;94.58;100716.94;10494019;28;19960;-87
2022/10/09 06:23:35;;;;;;;;;;;15.50;99.90;;;13.82;93.63;100719.84;10498207;28;19928;-87
2022/10/09 06:28:39;;;;;;;;;;;15.60;99.90;;;14.01;93.01;100737.25;10480714;28;19928;-87
2022/10/09 06:33:43;;;;;;;;;;;15.80;99.90;;;14.17;92.49;100740.66;10510298;28;20311;-87
2022/10/09 06:38:47;;;;;;;;;;;16.00;99.90;;;14.33;91.64;100742.38;10524977;28;19935;-87
2022/10/09 06:43:58;;;;;;;;;;;16.10;99.90;;;14.48;90.23;100741.63;10518045;28;19928;-88
2022/10/09 06:49:01;;;;;;;;;;;16.30;99.90;;;14.65;88.99;100752.00;10519339;28;19932;-87
2022/10/09 06:54:10;;;;;;;;;;;16.40;99.90;;;14.87;87.86;100760.16;10520081;28;19994;-87
2022/10/09 06:59:13;;;;;;;;;;;16.70;99.90;;;15.09;85.95;100750.41;10501377;28;19935;-87
2022/10/09 07:04:17;;;;;;;;;;;16.90;99.90;;;15.30;83.68;100760.41;10531299;28;20003;-88
2022/10/09 07:09:20;;;;;;;;;;;17.10;99.90;;;15.45;81.19;100758.53;10519745;28;19935;-88
2022/10/09 07:14:22;;;;;;;;;;;17.20;99.90;;;15.57;79.16;100762.38;10524485;28;19978;-87
2022/10/09 07:19:25;;;;;;;;;;;17.30;99.90;;;15.70;78.39;100757.22;10516684;28;19978;-87
2022/10/09 07:24:28;;;;;;;;;;;17.50;99.90;;;15.89;78.17;100752.28;10522270;28;19928;-87
2022/10/09 07:29:32;;;;;;;;;;;17.70;99.90;;;16.05;76.29;100760.09;10527899;28;19935;-88
2022/10/09 07:34:34;;;;;;;;;;;17.90;99.90;;;16.25;75.00;100760.28;10536112;28;19959;-87
2022/10/09 07:39:37;;;;;;;;;;;18.00;99.90;;;16.60;73.01;100754.03;10519722;28;19928;-87
2022/10/09 07:44:46;;;;;;;;;;;18.20;99.90;;;16.91;71.39;100765.44;10540182;28;19978;-87
2022/10/09 07:49:49;;;;;;;;;;;18.40;99.90;;;16.98;68.51;100769.03;10524978;28;20483;-87
2022/10/09 07:54:51;;;;;;;;;;;18.50;98.70;;;17.02;67.81;100767.59;10532003;28;20303;-87
2022/10/09 07:59:54;;;;;;;;;;;18.70;97.90;;;17.12;67.17;100760.03;10492265;28;20533;-87
2022/10/09 08:04:57;;;;;;;;;;;18.80;97.00;;;17.28;66.99;100773.16;10521118;28;19950;-87
2022/10/09 08:10:00;;;;;;;;;;;19.00;98.90;;;17.42;66.20;100773.22;10524738;28;19984;-88
2022/10/09 08:15:03;;;;;;;;;;;19.20;98.00;;;17.51;65.56;100785.44;10538315;28;19974;-87
2022/10/09 08:20:06;;;;;;;;;;;19.40;98.30;;;17.56;64.62;100781.13;10503633;28;20058;-87
2022/10/09 08:25:09;;;;;;;;;;;19.40;96.70;;;17.67;64.30;100790.50;10510618;28;19928;-87
2022/10/09 08:30:12;;;;;;;;;;;19.50;96.10;;;17.70;63.34;100784.72;10501652;28;20921;-87
2022/10/09 08:35:15;;;;;;;;;;;19.50;96.20;;;17.80;63.41;100787.88;10515314;28;19974;-87
2022/10/09 08:40:20;;;;;;;;;;;19.60;95.80;;;17.92;62.39;100797.03;10528918;28;20015;-88
2022/10/09 08:45:23;;;;;;;;;;;19.70;93.50;;;18.04;61.97;100791.06;10512516;28;19928;-87
2022/10/09 08:50:33;;;;;;;;;;;19.90;93.20;;;18.13;61.15;100797.94;10526384;28;20451;-88
2022/10/09 08:55:42;;;;;;;;;;;19.90;92.70;;;18.24;60.72;100801.91;10511644;28;19935;-88
2022/10/09 09:00:53;;;;;;;;;;;20.10;93.80;;;18.40;60.29;100805.00;10500600;28;19932;-87
2022/10/09 09:06:05;;;;;;;;;;;20.30;91.70;;;18.48;59.67;100804.03;10496409;28;19928;-88
2022/10/09 09:11:33;;;;;;;;;;;20.30;92.60;;;18.64;59.06;100816.22;10538030;28;19929;-88
2022/10/09 09:16:50;;;;;;;;;;;20.50;90.50;;;18.70;57.95;100818.13;10524400;28;19967;-88
2022/10/09 09:21:53;;;;;;;;;;;20.50;91.10;;;18.70;55.45;100821.66;10514262;28;19974;-88
2022/10/09 09:27:01;;;;;;;;;;;20.60;90.20;;;18.68;53.07;100818.34;10495352;28;19932;-88
2022/10/09 09:32:12;;;;;;;;;;;20.60;85.50;;;18.60;54.04;100826.59;10540803;28;19974;-88
2022/10/09 09:37:15;;;;;;;;;;;20.60;85.30;;;18.68;54.67;100833.66;10532648;28;19929;-87
2022/10/09 09:42:19;;;;;;;;;;;20.70;85.30;;;18.64;55.38;100835.06;10522445;28;19975;-88
2022/10/09 09:47:33;;;;;;;;;;;20.70;85.70;;;18.71;55.79;100830.56;10532677;28;19928;-87
2022/10/09 09:52:42;;;;;;;;;;;20.70;85.90;;;18.62;55.93;100840.66;10498006;28;19929;-90
2022/10/09 09:57:44;;;;;;;;;;;20.70;85.80;;;18.73;56.06;100841.97;10498428;28;19936;-89
2022/10/09 10:02:48;;;;;;;;;;;20.70;85.80;;;18.88;56.51;100839.06;10519601;28;19928;-85
2022/10/09 10:07:52;;;;;;;;;;;20.90;86.40;;;19.16;55.63;100836.16;10520042;28;19932;-85
2022/10/09 10:12:57;;;;;;;;;;;21.20;85.70;;;19.37;54.41;100841.34;10499891;28;19929;-86
2022/10/09 10:18:06;;;;;;;;;;;21.40;84.80;;;19.48;53.82;100839.84;10490356;28;19967;-86
2022/10/09 10:23:33;;;;;;;;;;;21.50;83.90;;;19.47;53.21;100836.31;10525844;28;20303;-87
2022/10/09 10:28:59;;;;;;;;;;;21.60;82.70;;;19.51;53.11;100834.88;10504534;28;20527;-87
2022/10/09 10:34:04;;;;;;;;;;;21.60;82.00;;;19.65;51.32;100841.06;10494448;28;19928;-87
2022/10/09 10:39:17;;;;;;;;;;;21.80;80.00;;;19.93;49.67;100838.09;10501308;28;19978;-87
2022/10/09 10:44:49;;;;;;;;;;;22.20;77.90;;;20.52;51.24;100828.06;10518002;28;19978;-87
2022/10/09 10:49:52;;;;;;;;;;;22.80;77.80;;;21.17;48.94;100822.31;10523587;28;20342;-87
2022/10/09 10:55:21;;;;;;;;;;;23.70;76.10;;;21.82;48.58;100826.22;10501103;28;19935;-87
2022/10/09 11:00:25;;;;;;;;;;;24.30;75.90;;;22.34;45.92;100823.09;10513848;28;19935;-87
2022/10/09 11:05:52;;;;;;;;;;;25.10;71.80;;;22.74;43.64;100822.50;10520616;28;19928;-87
2022/10/09 11:11:20;;;;;;;;;;;25.60;68.40;;;22.70;43.76;100817.53;10517263;28;19928;-87
2022/10/09 11:16:26;;;;;;;;;;;25.70;65.50;;;22.62;42.41;100820.59;10517587;28;20311;-87
2022/10/09 11:21:43;;;;;;;;;;;25.70;63.50;;;22.72;43.65;100809.16;10532284;28;19928;-87
2022/10/09 11:27:11;;;;;;;;;;;25.60;64.90;;;22.92;43.65;100798.03;10510321;28;19950;-87
2022/10/09 11:32:25;;;;;;;;;;;25.70;62.70;;;23.04;42.22;100807.00;10531849;28;20027;-88
2022/10/09 11:37:33;;;;;;;;;;;25.90;62.00;;;23.35;42.27;100799.56;10516644;28;19928;-87
2022/10/09 11:42:36;;;;;;;;;;;26.20;62.40;;;23.83;42.31;100787.59;10498096;28;19928;-87
2022/10/09 11:48:02;;;;;;;;;;;26.60;63.10;;;23.94;38.33;100784.81;10499628;28;19972;-87
2022/10/09 11:53:26;;;;;;;;;;;26.90;59.00;;;23.74;39.63;100784.41;10510118;28;19936;-87
2022/10/09 11:58:29;;;;;;;;;;;26.80;56.40;;;24.15;39.18;100788.72;10510121;28;19928;-87
2022/10/09 12:03:36;;;;;;;;;;;27.00;58.50;;;23.67;37.22;100781.81;10492500;28;19972;-87
2022/10/09 12:08:53;;;;;;;;;;;26.50;55.70;;;22.91;38.81;100780.09;10518069;28;19932;-87
2022/10/09 12:14:02;;;;;;;;;;;25.60;56.10;;;22.47;40.25;100779.56;10518112;28;20370;-87
2022/10/09 12:19:17;;;;;;;;;;;24.90;57.40;;;21.98;40.87;100773.38;10524496;28;20023;-87
2022/10/09 12:24:24;;;;;;;;;;;24.40;57.80;;;21.57;43.05;100788.44;10522507;28;19935;-87
2022/10/09 12:29:48;;;;;;;;;;;23.80;59.70;;;21.17;42.62;100784.47;10496425;28;19929;-86
2022/10/09 12:34:51;;;;;;;;;;;23.40;59.60;;;20.88;43.62;100780.63;10512604;28;19932;-86
2022/10/09 12:40:07;;;;;;;;;;;23.00;60.70;;;20.66;43.07;100785.56;10519874;28;20030;-85
2022/10/09 12:45:29;;;;;;;;;;;22.70;60.60;;;20.45;44.90;100781.31;10520536;28;20395;-86
2022/10/09 12:50:33;;;;;;;;;;;22.50;61.40;;;20.31;45.91;100767.91;10492743;28;19935;-86
2022/10/09 12:55:42;;;;;;;;;;;22.30;62.30;;;20.15;45.75;100762.22;10517433;28;20328;-85
2022/10/09 13:00:51;;;;;;;;;;;22.20;62.40;;;20.01;45.62;100759.59;10517134;28;20432;-85
2022/10/09 13:05:55;;;;;;;;;;;22.00;62.20;;;19.90;46.14;100760.28;10503914;28;19932;-86
2022/10/09 13:11:09;;;;;;;;;;;21.90;63.10;;;19.81;47.10;100756.19;10475476;28;19935;-85
2022/10/09 13:16:12;;;;;;;;;;;21.80;63.70;;;19.81;47.58;100747.28;10526289;28;20342;-85
2022/10/09 13:21:15;;;;;;;;;;;21.80;64.00;;;19.76;48.81;100750.59;10520251;28;19993;-86
2022/10/09 13:26:26;;;;;;;;;;;21.80;65.00;;;19.68;48.65;100753.56;10504235;28;20006;-85
2022/10/09 13:31:31;;;;;;;;;;;21.70;65.10;;;19.62;49.39;100751.72;10521251;28;19928;-86
2022/10/09 13:36:34;;;;;;;;;;;21.60;66.20;;;19.58;49.75;100754.00;10528141;28;19928;-86
2022/10/09 13:41:37;;;;;;;;;;;21.50;66.80;;;19.49;49.87;100748.00;10526071;28;19928;-85
2022/10/09 13:46:40;;;;;;;;;;;21.40;66.60;;;19.43;50.57;100734.53;10541559;28;20023;-85
2022/10/09 13:51:43;;;;;;;;;;;21.40;67.80;;;19.37;51.00;100733.53;10523557;28;19968;-85
2022/10/09 13:56:46;;;;;;;;;;;21.30;67.70;;;19.32;51.72;100741.44;10528652;28;19935;-85
2022/10/09 14:01:49;;;;;;;;;;;21.30;68.20;;;19.22;51.88;100747.25;10537532;28;19932;-85
2022/10/09 14:06:52;;;;;;;;;;;21.20;68.50;;;19.10;51.55;100734.63;10509971;28;19935;-85
2022/10/09 14:11:55;;;;;;;;;;;21.10;68.60;;;19.03;51.91;100740.03;10507808;28;20442;-85
2022/10/09 14:16:58;;;;;;;;;;;21.00;68.90;;;18.97;51.88;100741.72;10505185;28;19981;-85
2022/10/09 14:22:01;;;;;;;;;;;21.00;69.20;;;18.96;53.55;100744.63;10539197;28;19990;-85
2022/10/09 14:27:04;;;;;;;;;;;20.90;70.40;;;18.96;53.93;100744.63;10522980;28;19928;-85
2022/10/09 14:32:07;;;;;;;;;;;20.90;70.60;;;18.93;54.21;100737.75;10523476;28;19928;-85
2022/10/09 14:37:10;;;;;;;;;;;20.80;70.90;;;18.84;54.26;100732.81;10510463;28;19928;-85
2022/10/09 14:42:35;;;;;;;;;;;20.80;71.00;;;18.76;55.37;100736.53;10490278;28;19951;-86
2022/10/09 14:47:37;;;;;;;;;;;20.70;72.50;;;18.66;56.35;100744.19;10526586;28;19928;-86
2022/10/09 14:52:41;;;;;;;;;;;20.60;73.20;;;18.60;57.15;100742.34;10516756;28;19928;-86
2022/10/09 14:57:43;;;;;;;;;;;20.50;74.20;;;18.55;58.19;100739.44;10542022;28;19928;-85
2022/10/09 15:02:46;;;;;;;;;;;20.40;74.80;;;18.48;59.06;100742.13;10516545;28;19982;-86
2022/10/09 15:07:49;;;;;;;;;;;20.40;76.60;;;18.38;59.79;100739.81;10524340;28;20364;-86
2022/10/09 15:12:52;;;;;;;;;;;20.20;77.50;;;18.28;60.18;100752.03;10529093;28;19929;-86
2022/10/09 15:17:55;;;;;;;;;;;20.10;78.50;;;18.13;61.10;100746.84;10531978;28;20015;-86
2022/10/09 15:22:58;;;;;;;;;;;20.00;78.50;;;17.96;61.25;100761.69;10515084;28;19970;-86
2022/10/09 15:28:01;;;;;;;;;;;19.80;77.10;;;17.69;61.11;100761.53;10505687;28;19932;-86
2022/10/09 15:33:04;;;;;;;;;;;19.60;77.50;;;17.48;61.55;100761.66;10520046;28;19932;-86
2022/10/09 15:38:12;;;;;;;;;;;19.40;78.20;;;17.33;62.00;100775.22;10511241;28;19928;-85
2022/10/09 15:43:18;;;;;;;;;;;19.20;78.70;;;17.21;61.59;100774.94;10520544;28;20026;-86
2022/10/09 15:48:23;;;;;;;;;;;19.10;78.80;;;17.09;61.37;100774.69;10522131;28;20356;-86
2022/10/09 15:53:26;;;;;;;;;;;19.00;78.60;;;16.94;61.04;100771.25;10524740;28;19932;-86
2022/10/09 15:58:29;;;;;;;;;;;18.80;78.50;;;16.80;60.90;100772.19;10527371;28;20307;-85
2022/10/09 16:03:32;;;;;;;;;;;18.70;78.50;;;16.66;61.92;100768.53;10536512;28;19960;-86
2022/10/09 16:08:39;;;;;;;;;;;18.50;79.20;;;16.53;62.55;100779.16;10513890;28;19935;-87
2022/10/09 16:13:44;;;;;;;;;;;18.40;79.60;;;16.39;62.99;100786.25;10521189;28;19933;-87
2022/10/09 16:18:47;;;;;;;;;;;18.30;80.00;;;16.31;64.38;100803.31;10539605;28;20006;-86
2022/10/09 16:23:50;;;;;;;;;;;18.20;82.10;;;16.21;65.00;100812.66;10528645;28;19935;-86
2022/10/09 16:29:00;;;;;;;;;;;18.10;82.50;;;16.09;65.35;100814.19;10522328;28;20011;-86
2022/10/09 16:34:05;;;;;;;;;;;17.90;84.20;;;15.96;66.41;100825.59;10537882;28;19929;-87
2022/10/09 16:39:08;;;;;;;;;;;17.80;84.40;;;15.82;66.89;100837.13;10519447;28;20664;-87
2022/10/09 16:44:15;;;;;;;;;;;17.60;85.70;;;15.64;67.84;100845.56;10525965;28;19967;-87
2022/10/09 16:49:19;;;;;;;;;;;17.40;86.10;;;15.43;68.55;100848.94;10503754;28;19929;-87
2022/10/09 16:54:26;;;;;;;;;;;17.30;86.80;;;15.20;69.50;100849.84;10503024;28;19928;-87
2022/10/09 16:59:29;;;;;;;;;;;17.00;89.00;;;14.96;70.28;100856.25;10547668;28;19928;-86
2022/10/09 17:04:32;;;;;;;;;;;16.80;90.10;;;14.77;71.23;100867.44;10513083;28;19964;-86
2022/10/09 17:09:36;;;;;;;;;;;16.60;90.90;;;14.60;72.05;100865.91;10545617;28;19932;-86
2022/10/09 17:14:39;;;;;;;;;;;16.40;90.90;;;14.45;72.38;100869.31;10513829;28;19932;-86
2022/10/09 17:19:42;;;;;;;;;;;16.20;91.50;;;14.35;72.76;100879.38;10544645;28;19928;-86
2022/10/09 17:24:45;;;;;;;;;;;16.10;91.50;;;14.22;73.24;100887.16;10546009;28;19932;-86
2022/10/09 17:29:48;;;;;;;;;;;16.00;91.40;;;14.12;73.61;100887.34;10517988;28;19958;-86
2022/10/09 17:34:51;;;;;;;;;;;15.90;92.60;;;14.04;74.21;100886.56;10525501;28;19928;-83
2022/10/09 17:39:55;;;;;;;;;;;15.80;92.40;;;13.99;74.72;100891.59;10541857;28;20319;-83
2022/10/09 17:44:58;;;;;;;;;;;15.80;93.70;;;13.95;75.46;100899.13;10529113;28;19968;-83
2022/10/09 17:50:01;;;;;;;;;;;15.80;93.50;;;13.93;75.57;100901.13;10520301;28;20342;-86
2022/10/09 17:55:07;;;;;;;;;;;15.70;93.90;;;13.93;76.11;100903.81;10525861;28;19936;-86
2022/10/09 18:00:10;;;;;;;;;;;15.70;93.60;;;13.94;76.48;100908.13;10520188;28;19935;-86
2022/10/09 18:05:13;;;;;;;;;;;15.70;94.30;;;13.95;76.30;100909.81;10499599;28;19978;-86
2022/10/09 18:10:16;;;;;;;;;;;15.70;94.60;;;14.01;76.28;100908.28;10521028;28;20011;-86
2022/10/09 18:15:19;;;;;;;;;;;15.80;94.50;;;14.05;75.81;100906.94;10501642;28;20019;-86
2022/10/09 18:20:22;;;;;;;;;;;15.80;94.40;;;14.07;75.75;100913.75;10523043;28;19928;-86
2022/10/09 18:25:24;;;;;;;;;;;15.90;94.60;;;14.06;76.05;100914.78;10539917;28;19963;-86
2022/10/09 18:30:28;;;;;;;;;;;15.90;94.50;;;14.01;76.38;100927.81;10523452;28;19968;-86
2022/10/09 18:35:34;;;;;;;;;;;15.80;95.00;;;13.91;76.51;100920.03;10514252;28;19990;-86
2022/10/09 18:40:38;;;;;;;;;;;15.70;95.60;;;13.85;76.38;100928.72;10511553;28;19987;-86
2022/10/09 18:45:47;;;;;;;;;;;15.60;95.40;;;13.85;76.05;100933.19;10503658;28;19928;-86
2022/10/09 18:50:50;;;;;;;;;;;15.60;95.10;;;13.80;75.76;100930.25;10524073;28;19986;-86
2022/10/09 18:55:53;;;;;;;;;;;15.60;95.00;;;13.77;75.85;100938.56;10524184;28;19934;-86
2022/10/09 19:00:55;;;;;;;;;;;15.60;95.00;;;13.72;75.96;100946.25;10519316;28;19928;-85
2022/10/09 19:05:58;;;;;;;;;;;15.50;95.40;;;13.67;75.97;100944.09;10536027;28;19928;-86
2022/10/09 19:11:01;;;;;;;;;;;15.50;95.30;;;13.61;76.12;100947.44;10523704;28;20023;-86
2022/10/09 19:16:05;;;;;;;;;;;15.40;95.80;;;13.49;76.26;100954.97;10537532;28;19928;-86
2022/10/09 19:21:11;;;;;;;;;;;15.30;96.00;;;13.32;76.51;100961.34;10523072;28;19929;-86
2022/10/09 19:26:15;;;;;;;;;;;15.20;96.40;;;13.16;77.02;100966.63;10525835;28;20299;-86
2022/10/09 19:31:18;;;;;;;;;;;15.00;96.30;;;13.07;77.14;100977.31;10506158;28;20396;-86
2022/10/09 19:36:21;;;;;;;;;;;14.90;96.50;;;12.98;77.34;100986.28;10526326;28;19928;-86
2022/10/09 19:41:24;;;;;;;;;;;14.80;95.90;;;12.92;77.55;100991.44;10546240;28;19928;-85
2022/10/09 19:46:27;;;;;;;;;;;14.80;96.20;;;12.87;78.15;100994.59;10538264;28;20346;-85
2022/10/09 19:51:32;;;;;;;;;;;14.70;96.50;;;12.83;78.85;101009.25;10520857;28;19929;-85
2022/10/09 19:56:35;;;;;;;;;;;14.60;97.00;;;12.81;79.04;101006.75;10524012;28;19929;-85
2022/10/09 20:01:39;;;;;;;;;;;14.60;96.70;;;12.83;79.39;101020.78;10544639;28;19971;-85
2022/10/09 20:06:42;;;;;;;;;;;14.70;97.30;;;12.83;79.61;101017.25;10512750;28;19928;-85
2022/10/09 20:11:46;;;;;;;;;;;14.70;97.30;;;12.81;79.48;101017.44;10526313;28;19966;-85
2022/10/09 20:16:49;;;;;;;;;;;14.60;97.50;;;12.76;79.33;101025.06;10516149;28;20346;-85
2022/10/09 20:21:51;;;;;;;;;;;14.60;97.70;;;12.66;79.21;101021.72;10522736;28;19928;-85
2022/10/09 20:26:54;;;;;;;;;;;14.50;97.70;;;12.52;78.78;101017.81;10528483;28;19929;-85
2022/10/09 20:31:57;;;;;;;;;;;14.40;97.50;;;12.37;79.15;101032.75;10503885;28;19951;-85
2022/10/09 20:37:00;;;;;;;;;;;14.20;97.70;;;12.21;79.30;101035.34;10543414;28;19936;-85
2022/10/09 20:42:03;;;;;;;;;;;14.00;98.00;;;12.03;79.34;101043.38;10529844;28;20027;-85
2022/10/09 20:47:06;;;;;;;;;;;13.80;98.20;;;11.84;79.73;101044.44;10521308;28;20030;-86
2022/10/09 20:52:10;;;;;;;;;;;13.60;98.70;;;11.70;80.02;101044.97;10527891;28;19979;-85
2022/10/09 20:57:13;;;;;;;;;;;13.50;98.60;;;11.57;80.04;101047.16;10530552;28;19994;-85
2022/10/09 21:02:16;;;;;;;;;;;13.40;98.90;;;11.42;80.28;101052.19;10525998;28;20411;-85
2022/10/09 21:07:19;;;;;;;;;;;13.20;99.00;;;11.27;80.56;101054.53;10533284;28;19929;-86
2022/10/09 21:12:21;;;;;;;;;;;13.10;99.30;;;11.12;80.92;101058.72;10533992;28;19964;-86
2022/10/09 21:17:24;;;;;;;;;;;12.90;99.40;;;11.01;81.10;101056.28;10503274;28;19928;-85
2022/10/09 21:22:27;;;;;;;;;;;12.80;99.40;;;10.89;81.06;101055.66;10544187;28;20380;-85
2022/10/09 21:27:30;;;;;;;;;;;12.70;99.50;;;10.79;81.46;101054.84;10523501;28;20019;-85
2022/10/09 21:32:33;;;;;;;;;;;12.60;99.50;;;10.66;81.54;101060.50;10540929;28;19928;-85
2022/10/09 21:37:36;;;;;;;;;;;12.50;99.80;;;10.54;81.38;101059.03;10510262;28;20027;-85
2022/10/09 21:42:39;;;;;;;;;;;12.40;99.80;;;10.43;81.62;101062.72;10542992;28;19979;-85
2022/10/09 21:47:42;;;;;;;;;;;12.30;99.90;;;10.38;81.52;101059.69;10510293;28;20023;-85
2022/10/09 21:52:47;;;;;;;;;;;12.20;99.90;;;10.32;81.70;101069.06;10543938;28;19928;-85
2022/10/09 21:57:50;;;;;;;;;;;12.20;99.90;;;10.31;81.84;101070.03;10511838;28;20346;-85
2022/10/09 22:02:53;;;;;;;;;;;12.20;99.90;;;10.30;82.06;101054.22;10526250;28;20015;-85
2022/10/09 22:07:56;;;;;;;;;;;12.10;99.90;;;10.29;81.89;101053.41;10545271;28;19974;-85
2022/10/09 22:12:59;;;;;;;;;;;12.20;99.90;;;10.28;81.87;101054.38;10522655;28;20293;-85
2022/10/09 22:18:02;;;;;;;;;;;12.20;99.90;;;10.31;82.07;101053.25;10540416;28;19935;-85
2022/10/09 22:23:05;;;;;;;;;;;12.20;99.90;;;10.31;81.60;101064.72;10525880;28;20300;-84
2022/10/09 22:28:08;;;;;;;;;;;12.20;99.90;;;10.25;81.02;101059.97;10542701;28;20011;-85
2022/10/09 22:33:10;;;;;;;;;;;12.10;99.70;;;10.19;80.91;101055.22;10524565;28;19934;-85
2022/10/09 22:38:13;;;;;;;;;;;12.10;99.50;;;10.10;80.62;101059.56;10508832;28;20315;-85
2022/10/09 22:43:16;;;;;;;;;;;11.90;99.40;;;9.99;80.14;101058.91;10512614;28;19936;-85
2022/10/09 22:48:19;;;;;;;;;;;11.80;99.30;;;9.90;80.25;101072.06;10505488;28;19928;-85
2022/10/09 22:53:21;;;;;;;;;;;11.70;99.30;;;9.78;80.19;101059.94;10543122;28;19935;-85